Time;durP1;ratioP1;P1;durP2;ratioP2;P2;SDS_P1;SDS_P2;PMS_P1;PMS_P2;Temp;Humidity;BMP_temperature;BMP_pressure;BME280_temperature;BME280_humidity;BME280_pressure;Samples;Min_cycle;Max_cycle;Signal;HPM_P1;HPM_P2
2022/08/20 00:03:39;;;;;;;111.75;46.10;;;20.30;99.90;;;;;;10313292;28;20057;-80
2022/08/20 00:08:40;;;;;;;104.97;45.63;;;20.20;99.90;;;;;;10313456;28;20029;-81
2022/08/20 00:13:45;;;;;;;103.05;44.95;;;20.20;99.90;;;;;;10311851;28;20046;-80
2022/08/20 00:18:46;;;;;;;86.43;40.07;;;20.10;99.90;;;;;;10320431;28;20042;-80
2022/08/20 00:23:49;;;;;;;95.60;40.35;;;20.10;99.90;;;;;;10312981;28;20093;-81
2022/08/20 00:28:50;;;;;;;84.53;39.22;;;20.20;99.90;;;;;;10315273;28;20034;-80
2022/08/20 00:33:51;;;;;;;125.15;46.33;;;20.30;99.90;;;;;;10316860;28;20549;-80
2022/08/20 00:38:52;;;;;;;81.60;34.20;;;20.20;99.90;;;;;;10316572;28;20034;-80
2022/08/20 00:44:10;;;;;;;93.20;38.70;;;20.20;99.90;;;;;;10320984;28;20085;-81
2022/08/20 00:49:29;;;;;;;77.70;36.17;;;20.20;99.90;;;;;;10308914;28;20038;-80
2022/08/20 00:54:36;;;;;;;155.77;54.45;;;20.20;99.90;;;;;;10316582;28;20057;-79
2022/08/20 00:59:40;;;;;;;152.50;51.72;;;20.00;99.90;;;;;;10315807;28;20042;-79
2022/08/20 01:04:49;;;;;;;118.95;43.45;;;20.00;99.90;;;;;;10318703;28;20085;-79
2022/08/20 01:09:49;;;;;;;69.45;31.48;;;20.00;99.90;;;;;;10315282;28;20418;-80
2022/08/20 01:14:50;;;;;;;79.38;35.42;;;19.90;99.90;;;;;;10322762;28;20054;-81
2022/08/20 01:20:04;;;;;;;197.70;54.92;;;19.80;99.90;;;;;;10325713;28;20023;-79
2022/08/20 01:25:15;;;;;;;80.75;34.28;;;19.80;99.90;;;;;;10326637;28;20084;-79
2022/08/20 01:30:16;;;;;;;205.93;64.07;;;19.80;99.90;;;;;;10324515;28;20034;-80
2022/08/20 01:35:20;;;;;;;95.45;40.67;;;19.80;99.90;;;;;;10312870;28;20181;-80
2022/08/20 01:41:17;;;;;;;89.03;38.67;;;19.90;99.90;;;;;;10322559;28;20589;-82
2022/08/20 01:46:17;;;;;;;104.90;46.55;;;20.00;99.90;;;;;;10239471;28;20046;-80
2022/08/20 01:51:22;;;;;;;86.22;37.55;;;20.00;99.90;;;;;;10325677;28;20041;-79
2022/08/20 01:56:26;;;;;;;117.47;50.55;;;20.00;99.90;;;;;;10321914;28;20057;-80
2022/08/20 02:01:41;;;;;;;142.85;48.72;;;20.00;99.90;;;;;;10318260;28;20050;-79
2022/08/20 02:06:48;;;;;;;118.38;45.03;;;19.90;99.90;;;;;;10323572;28;20035;-80
2022/08/20 02:11:49;;;;;;;78.25;35.58;;;19.90;99.90;;;;;;10324057;28;20061;-80
2022/08/20 02:16:49;;;;;;;111.70;50.50;;;19.80;99.90;;;;;;10325850;28;20724;-80
2022/08/20 02:21:55;;;;;;;105.10;44.60;;;19.80;99.90;;;;;;10319212;28;20038;-79
2022/08/20 02:26:56;;;;;;;122.68;51.58;;;19.80;99.90;;;;;;10321633;28;20383;-79
2022/08/20 02:31:56;;;;;;;89.97;39.70;;;19.80;99.90;;;;;;10315547;28;20045;-79
2022/08/20 02:36:57;;;;;;;112.72;44.22;;;19.80;99.90;;;;;;10315657;28;20050;-79
2022/08/20 02:41:57;;;;;;;147.23;50.03;;;19.70;99.90;;;;;;10321491;28;20115;-80
2022/08/20 02:46:59;;;;;;;124.63;48.58;;;19.70;99.90;;;;;;10320206;28;20026;-79
2022/08/20 02:52:00;;;;;;;123.65;48.65;;;19.60;99.90;;;;;;10315692;28;20065;-79
2022/08/20 02:57:02;;;;;;;72.30;34.42;;;19.60;99.90;;;;;;10316906;28;20026;-78
2022/08/20 03:02:03;;;;;;;95.95;41.72;;;19.60;99.90;;;;;;10323056;28;20046;-80
2022/08/20 03:07:05;;;;;;;169.50;48.00;;;19.70;99.90;;;;;;10321280;28;20018;-81
2022/08/20 03:12:07;;;;;;;185.93;50.67;;;19.70;99.90;;;;;;10319089;28;20034;-79
2022/08/20 03:17:07;;;;;;;71.85;31.13;;;19.60;99.90;;;;;;10320451;28;20070;-80
2022/08/20 03:22:08;;;;;;;180.90;54.53;;;19.60;99.90;;;;;;10319422;28;20639;-79
2022/08/20 03:27:08;;;;;;;97.20;38.90;;;19.60;99.90;;;;;;10318666;28;20117;-79
2022/08/20 03:32:09;;;;;;;350.45;68.70;;;19.60;99.90;;;;;;10312952;28;20027;-79
2022/08/20 03:37:10;;;;;;;117.30;39.45;;;19.60;99.90;;;;;;10315790;28;20153;-79
2022/08/20 03:42:11;;;;;;;95.32;38.47;;;19.50;99.90;;;;;;10317372;28;20038;-80
2022/08/20 03:47:11;;;;;;;198.60;51.42;;;19.60;99.90;;;;;;10312678;28;20038;-79
2022/08/20 03:52:12;;;;;;;192.27;53.05;;;19.50;99.90;;;;;;10314876;28;20043;-78
2022/08/20 03:57:14;;;;;;;89.53;39.28;;;19.40;99.90;;;;;;10299088;28;20038;-79
2022/08/20 04:02:14;;;;;;;154.63;51.28;;;19.40;99.90;;;;;;10315292;28;20689;-79
2022/08/20 04:07:24;;;;;;;69.85;33.13;;;19.50;99.90;;;;;;10309616;28;20027;-81
2022/08/20 04:12:25;;;;;;;168.93;50.22;;;19.60;99.90;;;;;;10315538;28;20672;-79
2022/08/20 04:17:26;;;;;;;146.18;50.28;;;19.70;99.90;;;;;;10321179;28;20038;-79
2022/08/20 04:22:26;;;;;;;123.40;49.67;;;19.70;99.90;;;;;;10318291;28;20026;-80
2022/08/20 04:27:27;;;;;;;90.05;41.65;;;19.80;99.90;;;;;;10317249;28;20022;-81
2022/08/20 04:32:28;;;;;;;66.82;32.83;;;19.90;99.90;;;;;;10317321;28;20110;-79
2022/08/20 04:37:29;;;;;;;65.55;32.42;;;20.10;99.90;;;;;;10318628;28;20554;-80
2022/08/20 04:42:30;;;;;;;67.63;31.92;;;20.20;99.90;;;;;;10323542;28;20041;-81
2022/08/20 04:47:32;;;;;;;83.20;37.42;;;20.50;99.90;;;;;;10322068;28;20034;-79
2022/08/20 04:52:33;;;;;;;65.50;31.98;;;20.50;99.90;;;;;;10325929;28;20026;-79
2022/08/20 04:57:37;;;;;;;75.63;37.63;;;20.60;99.90;;;;;;10323770;28;20050;-81
2022/08/20 05:02:37;;;;;;;72.45;35.17;;;20.60;99.90;;;;;;10321969;28;20077;-80
2022/08/20 05:07:42;;;;;;;71.25;34.13;;;20.60;99.90;;;;;;10327996;28;20034;-79
2022/08/20 05:12:43;;;;;;;61.03;31.77;;;20.60;99.90;;;;;;10326963;28;20217;-79
2022/08/20 05:17:43;;;;;;;76.18;34.88;;;20.80;99.90;;;;;;10326809;28;20046;-79
2022/08/20 05:22:44;;;;;;;64.20;31.70;;;20.90;99.90;;;;;;10329743;28;20023;-81
2022/08/20 05:27:45;;;;;;;64.05;33.88;;;21.10;99.90;;;;;;10322178;28;20081;-79
2022/08/20 05:32:46;;;;;;;61.28;31.15;;;21.20;99.90;;;;;;10318471;28;20084;-81
2022/08/20 05:37:46;;;;;;;61.22;32.03;;;21.40;99.90;;;;;;10304878;28;20035;-80
2022/08/20 05:42:47;;;;;;;69.43;33.40;;;21.50;99.90;;;;;;10319959;28;20034;-80
2022/08/20 05:47:48;;;;;;;74.50;34.80;;;21.60;99.90;;;;;;10320010;28;20030;-79
2022/08/20 05:52:49;;;;;;;70.07;33.63;;;21.60;99.90;;;;;;10321490;28;20483;-79
2022/08/20 05:57:55;;;;;;;57.92;31.73;;;21.60;99.90;;;;;;10310836;28;20402;-81
2022/08/20 06:08:15;;;;;;;58.40;31.52;;;21.80;99.90;;;;;;10326093;28;20034;-78
2022/08/20 06:13:16;;;;;;;35.80;23.23;;;21.80;99.90;;;;;;10325253;28;20385;-80
2022/08/20 06:18:17;;;;;;;57.28;30.75;;;21.80;99.90;;;;;;10323336;28;20035;-79
2022/08/20 06:23:18;;;;;;;53.03;29.95;;;21.80;99.90;;;;;;10322093;28;20031;-79
2022/08/20 06:28:19;;;;;;;52.70;28.55;;;21.70;99.90;;;;;;10325172;28;20048;-79
2022/08/20 06:33:20;;;;;;;48.65;29.30;;;21.70;99.90;;;;;;10325789;28;20046;-79
2022/08/20 06:38:20;;;;;;;49.47;29.17;;;21.70;99.90;;;;;;10322047;28;20490;-80
2022/08/20 06:43:21;;;;;;;50.60;30.00;;;21.60;99.90;;;;;;10314165;28;20034;-81
2022/08/20 06:48:23;;;;;;;39.05;25.25;;;21.70;99.90;;;;;;10321085;28;20034;-80
2022/08/20 06:53:24;;;;;;;48.33;26.98;;;21.80;99.90;;;;;;10320817;28;20410;-80
2022/08/20 06:58:25;;;;;;;44.15;28.10;;;21.80;99.90;;;;;;10316848;28;20045;-81
2022/08/20 07:03:26;;;;;;;44.83;25.00;;;21.90;99.90;;;;;;10320462;28;20576;-82
2022/08/20 07:08:27;;;;;;;43.28;25.70;;;22.10;99.90;;;;;;10319172;28;20047;-80
2022/08/20 07:13:28;;;;;;;52.90;29.45;;;22.40;99.90;;;;;;10319337;28;20026;-80
2022/08/20 07:18:28;;;;;;;52.45;30.40;;;22.70;99.90;;;;;;10315067;28;20041;-80
2022/08/20 07:23:30;;;;;;;40.65;25.90;;;23.00;99.90;;;;;;10317479;28;20040;-83
2022/08/20 07:28:31;;;;;;;50.33;24.55;;;23.20;99.90;;;;;;10316268;28;20489;-85
2022/08/20 07:33:32;;;;;;;37.47;22.05;;;23.20;99.90;;;;;;10318688;28;20033;-83
2022/08/20 07:38:34;;;;;;;37.08;22.48;;;23.20;99.90;;;;;;10311819;28;20038;-83
2022/08/20 07:43:35;;;;;;;43.53;22.70;;;23.20;99.90;;;;;;10311568;28;20755;-82
2022/08/20 07:48:38;;;;;;;37.33;24.80;;;23.10;99.90;;;;;;10309471;28;20029;-84
2022/08/20 07:53:40;;;;;;;37.58;23.75;;;23.30;99.90;;;;;;10290871;28;20125;-83
2022/08/20 07:58:48;;;;;;;42.72;25.02;;;23.40;99.90;;;;;;10313213;28;20054;-84
2022/08/20 08:03:49;;;;;;;37.90;24.63;;;23.40;99.90;;;;;;10303314;28;20124;-82
2022/08/20 08:08:50;;;;;;;40.28;24.27;;;23.50;99.90;;;;;;10319541;28;20734;-81
2022/08/20 08:13:51;;;;;;;36.83;24.08;;;23.50;99.90;;;;;;10314070;28;20068;-82
2022/08/20 08:18:55;;;;;;;36.00;24.05;;;23.60;99.90;;;;;;10311742;28;20046;-84
2022/08/20 08:23:57;;;;;;;40.60;25.50;;;23.60;99.90;;;;;;10318119;28;20080;-86
2022/08/20 08:28:57;;;;;;;48.00;29.17;;;23.70;99.90;;;;;;10302290;28;20034;-82
2022/08/20 08:34:04;;;;;;;41.40;26.80;;;23.80;99.90;;;;;;10309979;28;20398;-84
2022/08/20 08:39:05;;;;;;;35.50;23.90;;;23.80;99.90;;;;;;10302509;28;20185;-83
2022/08/20 08:44:13;;;;;;;38.97;25.17;;;23.60;99.90;;;;;;10298725;28;20052;-84
2022/08/20 08:49:21;;;;;;;35.33;24.70;;;23.20;99.90;;;;;;10300617;28;20030;-83
2022/08/20 08:54:27;;;;;;;29.85;21.23;;;23.10;99.90;;;;;;10314012;28;20395;-84
2022/08/20 08:59:33;;;;;;;36.50;23.00;;;23.10;99.90;;;;;;10316586;28;20050;-84
2022/08/20 09:05:14;;;;;;;29.08;20.23;;;23.40;99.90;;;;;;10293378;28;20042;-87
2022/08/20 09:10:16;;;;;;;28.95;21.38;;;23.50;99.90;;;;;;10308163;28;20074;-83
2022/08/20 09:15:16;;;;;;;29.05;20.20;;;23.60;99.90;;;;;;10317863;28;20046;-86
2022/08/20 09:20:18;;;;;;;28.20;20.40;;;23.60;99.90;;;;;;10298179;28;20046;-84
2022/08/20 09:25:19;;;;;;;25.33;18.55;;;23.60;99.90;;;;;;10300590;28;20031;-84
2022/08/20 09:30:20;;;;;;;31.25;19.00;;;23.50;99.90;;;;;;10288236;28;20482;-83
2022/08/20 09:35:20;;;;;;;24.55;16.58;;;23.30;99.90;;;;;;10320603;28;20035;-84
2022/08/20 09:40:21;;;;;;;25.60;18.10;;;23.00;99.90;;;;;;10325921;28;20034;-83
2022/08/20 09:51:31;;;;;;;28.60;19.83;;;22.60;99.90;;;;;;10159470;29;20833;-82
2022/08/20 10:29:29;;;;;;;8.07;4.65;;;25.60;99.90;;;;;;10314408;28;20505;-83
2022/08/20 10:34:56;;;;;;;11.10;5.93;;;25.80;99.90;;;;;;10308682;28;20030;-83
2022/08/20 10:40:35;;;;;;;11.13;5.75;;;25.60;99.90;;;;;;10295786;28;20050;-84
2022/08/20 10:51:50;;;;;;;10.75;5.35;;;25.30;99.90;;;;;;10258330;28;20042;-84
2022/08/20 10:56:54;;;;;;;12.25;5.88;;;25.10;99.90;;;;;;10300219;28;20486;-84
2022/08/20 11:01:55;;;;;;;16.37;6.73;;;24.90;99.90;;;;;;10225879;29;20035;-81
2022/08/20 11:07:14;;;;;;;13.05;6.50;;;24.80;99.90;;;;;;10229376;29;20051;-83
2022/08/20 11:12:21;;;;;;;11.32;6.70;;;24.80;99.90;;;;;;10198888;29;20031;-81
2022/08/20 11:17:31;;;;;;;14.05;6.70;;;24.60;99.90;;;;;;10216861;29;20047;-82
2022/08/20 11:22:31;;;;;;;11.30;6.93;;;24.60;99.90;;;;;;10218300;29;20672;-84
2022/08/20 11:27:41;;;;;;;20.75;7.65;;;24.40;99.90;;;;;;10217558;29;20487;-81
2022/08/20 11:32:42;;;;;;;13.77;7.75;;;24.20;99.90;;;;;;10213960;29;20039;-84
2022/08/20 11:37:44;;;;;;;18.17;7.15;;;24.10;99.90;;;;;;10235130;29;20054;-83
2022/08/20 11:42:46;;;;;;;20.27;10.10;;;23.90;99.90;;;;;;10251237;28;20062;-84
2022/08/20 11:47:47;;;;;;;25.55;12.73;;;23.60;99.90;;;;;;10252952;28;20027;-83
2022/08/20 12:04:48;;;;;;;24.67;16.02;;;22.10;99.90;;;;;;10237735;29;20047;-83
2022/08/20 12:09:50;;;;;;;33.35;19.55;;;22.00;99.90;;;;;;10315061;28;20058;-82
2022/08/20 12:15:26;;;;;;;33.10;21.63;;;22.00;99.90;;;;;;10293782;28;20088;-84
2022/08/20 12:27:34;;;;;;;33.58;19.77;;;22.00;99.90;;;;;;10119816;28;20038;-83
2022/08/20 12:32:36;;;;;;;27.80;17.73;;;21.90;99.90;;;;;;10112825;28;20069;-82
2022/08/20 12:37:37;;;;;;;27.08;17.35;;;21.80;99.90;;;;;;10291539;28;20050;-83
2022/08/20 12:42:38;;;;;;;28.83;17.67;;;21.80;99.90;;;;;;10299915;28;20518;-82
2022/08/20 12:47:48;;;;;;;30.70;19.70;;;21.90;99.90;;;;;;10314895;28;20153;-82
2022/08/20 12:52:50;;;;;;;36.78;21.27;;;22.00;99.90;;;;;;10318758;28;20158;-83
2022/08/20 12:57:55;;;;;;;31.30;20.25;;;22.10;99.90;;;;;;10312044;28;20050;-84
2022/08/20 13:02:56;;;;;;;;;;;22.10;99.90;;;;;;10312364;28;20046;-82
2022/08/20 13:07:57;;;;;;;28.48;17.70;;;22.10;99.90;;;;;;10322881;28;20313;-81
2022/08/20 13:13:01;;;;;;;28.42;17.63;;;22.10;99.90;;;;;;10319614;28;20034;-80
2022/08/20 13:18:04;;;;;;;26.65;18.30;;;22.00;99.90;;;;;;10315786;28;20040;-80
2022/08/20 13:23:05;;;;;;;34.50;19.95;;;22.00;99.90;;;;;;10319707;28;20104;-80
2022/08/20 13:28:05;;;;;;;26.02;16.75;;;22.00;99.90;;;;;;10319988;28;20133;-82
2022/08/20 13:33:06;;;;;;;29.05;17.80;;;22.00;99.90;;;;;;10319715;28;20038;-82
2022/08/20 13:38:07;;;;;;;28.77;18.15;;;21.90;99.90;;;;;;10316411;28;20046;-83
2022/08/20 13:43:07;;;;;;;27.48;18.38;;;21.70;99.90;;;;;;10315539;28;20462;-81
2022/08/20 13:48:08;;;;;;;28.92;18.13;;;21.60;99.90;;;;;;10322539;28;20026;-81
2022/08/20 13:53:09;;;;;;;31.83;19.83;;;21.60;99.90;;;;;;10317519;28;20545;-82
2022/08/20 13:58:09;;;;;;;30.13;19.45;;;21.50;99.90;;;;;;10317133;28;20125;-82
2022/08/20 14:03:11;;;;;;;32.70;21.38;;;21.50;99.90;;;;;;10321297;28;20033;-81
2022/08/20 14:08:17;;;;;;;33.53;20.17;;;21.40;99.90;;;;;;10324692;28;20379;-81
2022/08/20 14:13:21;;;;;;;41.58;26.40;;;21.30;99.90;;;;;;10317726;28;20069;-82
2022/08/20 14:18:22;;;;;;;40.92;24.25;;;21.20;99.90;;;;;;10314073;28;20056;-83
2022/08/20 14:23:22;;;;;;;101.07;67.82;;;21.20;99.90;;;;;;10312762;28;20023;-81
2022/08/20 14:28:23;;;;;;;55.55;31.67;;;21.00;99.90;;;;;;10308073;28;20390;-81
2022/08/20 14:33:24;;;;;;;54.40;30.88;;;20.90;99.90;;;;;;10308833;28;20035;-82
2022/08/20 14:38:24;;;;;;;64.93;33.17;;;20.80;99.90;;;;;;10313154;28;20030;-81
2022/08/20 14:43:51;;;;;;;64.22;33.22;;;20.80;99.90;;;;;;10312530;28;20462;-83
2022/08/20 14:49:05;;;;;;;81.82;39.65;;;20.80;99.90;;;;;;10290988;28;20453;-82
2022/08/20 14:54:06;;;;;;;60.90;35.17;;;20.70;99.90;;;;;;10303807;28;20464;-83
2022/08/20 14:59:07;;;;;;;56.28;31.35;;;20.70;99.90;;;;;;10300195;28;20026;-82
2022/08/20 15:04:07;;;;;;;55.95;32.70;;;20.70;99.90;;;;;;10320122;28;20457;-82
2022/08/20 15:09:08;;;;;;;61.85;34.35;;;20.70;99.90;;;;;;10301776;28;20054;-81
2022/08/20 15:14:09;;;;;;;66.22;35.42;;;20.60;99.90;;;;;;10295007;28;20493;-84
2022/08/20 15:19:09;;;;;;;68.47;35.78;;;20.60;99.90;;;;;;10317137;28;20449;-81
2022/08/20 15:24:10;;;;;;;63.03;35.38;;;20.60;99.90;;;;;;10321989;28;20034;-81
2022/08/20 15:29:11;;;;;;;52.70;30.20;;;20.60;99.90;;;;;;10320228;28;20030;-81
2022/08/20 15:34:12;;;;;;;59.17;31.15;;;20.60;99.90;;;;;;10313601;28;20150;-81
2022/08/20 15:39:20;;;;;;;57.45;29.75;;;20.60;99.90;;;;;;10297830;28;20129;-82
2022/08/20 15:44:21;;;;;;;47.47;25.38;;;20.60;99.90;;;;;;10303460;28;20066;-81
2022/08/20 15:49:23;;;;;;;41.83;25.70;;;20.50;99.90;;;;;;10313345;28;20109;-82
2022/08/20 15:54:25;;;;;;;49.42;28.98;;;20.40;99.90;;;;;;10300761;28;20047;-85
2022/08/20 15:59:41;;;;;;;50.72;29.50;;;20.30;99.90;;;;;;10296052;28;20124;-80
2022/08/20 16:04:54;;;;;;;;;;;20.30;99.90;;;;;;10311502;28;20050;-80
2022/08/20 16:10:03;;;;;;;42.92;23.50;;;20.30;99.90;;;;;;10313865;28;19937;-81
2022/08/20 16:15:16;;;;;;;47.03;26.55;;;20.20;99.90;;;;;;10293283;28;20044;-79
2022/08/20 16:20:27;;;;;;;44.53;25.08;;;20.00;99.90;;;;;;10315323;28;20077;-79
2022/08/20 16:26:01;;;;;;;52.30;29.52;;;20.00;99.90;;;;;;10316062;28;20031;-79
2022/08/20 16:31:11;;;;;;;42.80;25.33;;;19.90;99.90;;;;;;10292639;28;20486;-78
2022/08/20 16:36:33;;;;;;;42.58;24.88;;;19.80;99.90;;;;;;10312833;28;20018;-79
2022/08/20 16:41:39;;;;;;;45.50;25.00;;;19.70;99.90;;;;;;10321716;28;20030;-80
2022/08/20 16:46:47;;;;;;;35.60;23.33;;;19.70;99.90;;;;;;10323904;28;20034;-80
2022/08/20 16:51:51;;;;;;;62.72;30.63;;;19.60;99.90;;;;;;10324908;28;20096;-80
2022/08/20 16:57:05;;;;;;;58.60;34.55;;;19.70;99.90;;;;;;10318487;28;20034;-80
2022/08/20 17:02:08;;;;;;;43.33;28.02;;;19.80;99.90;;;;;;10321085;28;20030;-79
2022/08/20 17:07:09;;;;;;;48.35;27.70;;;19.70;99.90;;;;;;10308806;28;20074;-80
2022/08/20 17:12:16;;;;;;;47.90;27.95;;;19.70;99.90;;;;;;10321061;28;20444;-80
2022/08/20 17:17:26;;;;;;;56.63;30.15;;;19.80;99.90;;;;;;10325394;28;20073;-80
2022/08/20 17:22:30;;;;;;;76.22;39.75;;;19.80;99.90;;;;;;10326160;28;20113;-80
2022/08/20 17:27:30;;;;;;;59.35;34.97;;;19.80;99.90;;;;;;10309145;28;20034;-81
2022/08/20 17:32:31;;;;;;;69.53;35.50;;;19.80;99.90;;;;;;10300337;28;20099;-80
2022/08/20 17:37:35;;;;;;;67.68;34.20;;;19.80;99.90;;;;;;10326712;28;20092;-80
2022/08/20 17:42:57;;;;;;;75.72;35.90;;;19.90;99.90;;;;;;10326944;28;20057;-80
2022/08/20 17:47:59;;;;;;;67.70;34.90;;;19.80;99.90;;;;;;10325180;28;20695;-80
2022/08/20 17:53:04;;;;;;;66.47;32.58;;;19.80;99.90;;;;;;10319716;28;20041;-80
2022/08/20 17:58:14;;;;;;;62.67;32.47;;;19.80;99.90;;;;;;10325123;28;20046;-80
2022/08/20 18:03:22;;;;;;;60.75;37.05;;;19.70;99.90;;;;;;10321355;28;20023;-81
2022/08/20 18:09:13;;;;;;;81.53;35.83;;;19.70;99.90;;;;;;10316791;28;20089;-81
2022/08/20 18:14:50;;;;;;;76.38;37.42;;;19.60;99.90;;;;;;10198962;28;20050;-83
2022/08/20 18:20:03;;;;;;;58.55;32.83;;;19.50;99.90;;;;;;10321621;28;20046;-80
2022/08/20 18:25:21;;;;;;;59.08;32.17;;;19.60;99.90;;;;;;10317607;28;20014;-81
2022/08/20 18:30:24;;;;;;;70.05;36.00;;;19.60;99.90;;;;;;10316887;28;20065;-82
2022/08/20 18:35:38;;;;;;;81.15;36.53;;;19.50;99.90;;;;;;10321134;28;20127;-79
2022/08/20 18:40:40;;;;;;;68.35;34.28;;;19.50;99.90;;;;;;10321841;28;20401;-81
2022/08/20 18:45:41;;;;;;;80.28;36.70;;;19.40;99.90;;;;;;10319326;28;20027;-81
2022/08/20 18:50:46;;;;;;;74.97;35.35;;;19.40;99.90;;;;;;10304264;28;20573;-82
2022/08/20 18:56:01;;;;;;;75.18;35.20;;;19.30;99.90;;;;;;10323826;28;20049;-80
2022/08/20 19:01:08;;;;;;;75.25;36.42;;;19.30;99.90;;;;;;10316864;28;20030;-82
2022/08/20 19:06:28;;;;;;;82.63;40.67;;;19.30;99.90;;;;;;10317550;28;20089;-81
2022/08/20 19:11:50;;;;;;;73.38;38.47;;;19.30;99.90;;;;;;10317021;28;20022;-80
2022/08/20 19:17:30;;;;;;;106.15;44.10;;;19.30;99.90;;;;;;10315142;28;20525;-81
2022/08/20 19:22:33;;;;;;;109.50;44.97;;;19.30;99.90;;;;;;10315302;28;20506;-79
2022/08/20 19:27:34;;;;;;;73.63;37.80;;;19.20;99.90;;;;;;10322484;28;20029;-80
2022/08/20 19:32:35;;;;;;;77.45;37.15;;;19.20;99.90;;;;;;10316674;28;20034;-81
2022/08/20 19:37:43;;;;;;;68.80;34.30;;;19.20;99.90;;;;;;10318477;28;20042;-81
2022/08/20 19:42:43;;;;;;;87.88;43.88;;;19.30;99.90;;;;;;10310492;28;20027;-84
2022/08/20 19:48:15;;;;;;;74.85;38.00;;;19.40;99.90;;;;;;10305918;28;20030;-83
2022/08/20 19:53:15;;;;;;;89.68;38.90;;;19.40;99.90;;;;;;10296772;28;20510;-81
2022/08/20 19:58:18;;;;;;;66.03;34.17;;;19.40;99.90;;;;;;10306868;28;20046;-82
2022/08/20 20:03:23;;;;;;;65.32;34.40;;;19.40;99.90;;;;;;10303771;28;20121;-81
2022/08/20 20:08:28;;;;;;;78.00;38.20;;;19.30;99.90;;;;;;10279407;28;20068;-86
2022/08/20 20:13:30;;;;;;;;;;;19.30;99.90;;;;;;10277770;28;20285;-81
2022/08/20 20:18:36;;;;;;;51.40;28.38;;;19.20;99.90;;;;;;10296085;28;19929;-83
2022/08/20 20:23:37;;;;;;;48.22;27.88;;;19.20;99.90;;;;;;10309117;28;20046;-83
2022/08/20 20:28:45;;;;;;;59.17;30.73;;;19.20;99.90;;;;;;10309481;28;20430;-82
2022/08/20 20:33:54;;;;;;;68.43;34.65;;;19.20;99.90;;;;;;10310698;28;20042;-81
2022/08/20 20:39:28;;;;;;;78.78;37.08;;;19.20;99.90;;;;;;10308195;28;20070;-82
2022/08/20 20:44:36;;;;;;;67.95;32.85;;;19.20;99.90;;;;;;10312422;28;20069;-82
2022/08/20 20:50:02;;;;;;;84.85;39.63;;;19.10;99.90;;;;;;10311604;28;20515;-83
2022/08/20 20:55:13;;;;;;;76.55;38.60;;;19.10;99.90;;;;;;10311421;28;20038;-82
2022/08/20 21:00:16;;;;;;;62.38;32.05;;;19.10;99.90;;;;;;10299712;28;20031;-84
2022/08/20 21:05:19;;;;;;;111.72;42.70;;;18.90;99.90;;;;;;10295649;28;20085;-82
2022/08/20 21:10:23;;;;;;;63.80;31.08;;;18.90;99.90;;;;;;10293700;28;20058;-82
2022/08/20 21:15:25;;;;;;;71.90;32.47;;;18.90;99.90;;;;;;10291146;28;20030;-82
2022/08/20 21:20:26;;;;;;;50.75;27.17;;;18.90;99.90;;;;;;10312385;28;20453;-82
2022/08/20 21:25:30;;;;;;;47.13;24.70;;;18.90;99.90;;;;;;10310941;28;20050;-80
2022/08/20 21:30:31;;;;;;;57.75;28.95;;;18.90;99.90;;;;;;10321681;28;20770;-84
2022/08/20 21:35:31;;;;;;;50.35;28.30;;;19.00;99.90;;;;;;10324830;28;20524;-83
2022/08/20 21:40:32;;;;;;;57.38;29.67;;;19.00;99.90;;;;;;10312668;28;20022;-84
2022/08/20 21:45:33;;;;;;;53.97;29.30;;;19.10;99.90;;;;;;10315643;28;20026;-82
2022/08/20 21:50:34;;;;;;;51.05;28.13;;;19.20;99.90;;;;;;10307794;28;20030;-82
2022/08/20 21:55:35;;;;;;;45.25;25.88;;;19.20;99.90;;;;;;10314452;28;20399;-82
2022/08/20 22:00:56;;;;;;;46.50;26.30;;;19.30;99.90;;;;;;10319689;28;20073;-82
2022/08/20 22:05:57;;;;;;;43.55;25.08;;;19.20;99.90;;;;;;10321980;28;20133;-83
2022/08/20 22:10:59;;;;;;;48.90;27.58;;;19.20;99.90;;;;;;10321598;28;20031;-81
2022/08/20 22:16:02;;;;;;;54.28;27.77;;;19.20;99.90;;;;;;10324021;28;20037;-82
2022/08/20 22:21:07;;;;;;;47.78;27.35;;;19.20;99.90;;;;;;10306935;28;20600;-83
2022/08/20 22:26:08;;;;;;;42.63;24.75;;;19.10;99.90;;;;;;10322997;28;20059;-82
2022/08/20 22:31:09;;;;;;;27.60;18.23;;;19.00;99.90;;;;;;10305466;28;20514;-83
2022/08/20 22:36:10;;;;;;;38.58;22.42;;;19.00;99.90;;;;;;10323407;28;20510;-84
2022/08/20 22:41:10;;;;;;;43.45;24.13;;;18.90;99.90;;;;;;10326032;28;20132;-83
2022/08/20 22:46:13;;;;;;;47.45;25.38;;;18.90;99.90;;;;;;10321926;28;20629;-83
2022/08/20 22:51:21;;;;;;;55.03;26.40;;;18.90;99.90;;;;;;10322352;28;20034;-82
2022/08/20 22:56:22;;;;;;;50.33;26.77;;;18.90;99.90;;;;;;10316033;28;20133;-82
2022/08/20 23:01:23;;;;;;;45.13;25.40;;;18.70;99.90;;;;;;10318551;28;20030;-83
2022/08/20 23:06:25;;;;;;;53.15;28.23;;;18.60;99.90;;;;;;10320779;28;20058;-83
2022/08/20 23:11:25;;;;;;;60.35;30.73;;;18.50;99.90;;;;;;10323870;28;20050;-83
2022/08/20 23:16:26;;;;;;;58.15;28.17;;;18.50;99.90;;;;;;10323819;28;20129;-83
2022/08/20 23:21:26;;;;;;;78.78;35.58;;;18.60;99.90;;;;;;10318600;28;20819;-83
2022/08/20 23:26:27;;;;;;;73.38;35.30;;;18.60;99.90;;;;;;10321925;28;20030;-83
2022/08/20 23:31:28;;;;;;;55.08;29.23;;;18.60;99.90;;;;;;10322713;28;20034;-83
2022/08/20 23:36:28;;;;;;;56.03;30.02;;;18.80;99.90;;;;;;10323163;28;20038;-82
2022/08/20 23:41:29;;;;;;;85.25;36.75;;;18.90;99.90;;;;;;10324232;28;20678;-82
2022/08/20 23:46:33;;;;;;;76.65;34.08;;;18.90;99.90;;;;;;10323732;28;20113;-82
2022/08/20 23:51:34;;;;;;;51.78;26.75;;;19.00;99.90;;;;;;10321653;28;20065;-82
2022/08/20 23:56:35;;;;;;;65.45;31.85;;;19.00;99.90;;;;;;10307028;28;20122;-82
